createdAt,value
2022-12-17T00:01:40.555Z,15.40
2022-12-17T00:04:25.107Z,16.20
2022-12-17T00:07:09.824Z,15.50
2022-12-17T00:09:54.085Z,16.83
2022-12-17T00:12:40.771Z,16.30
2022-12-17T00:15:25.687Z,14.30
2022-12-17T00:18:10.163Z,15.80
2022-12-17T00:20:54.639Z,16.33
2022-12-17T00:23:41.028Z,16.63
2022-12-17T00:26:26.289Z,15.73
2022-12-17T00:29:11.376Z,17.70
2022-12-17T00:32:12.600Z,16.40
2022-12-17T00:34:57.335Z,16.70
2022-12-17T00:37:41.872Z,18.07
2022-12-17T00:40:27.340Z,17.43
2022-12-17T00:43:26.870Z,17.47
2022-12-17T00:46:11.634Z,15.97
2022-12-17T00:48:56.620Z,16.60
2022-12-17T00:51:41.493Z,16.27
2022-12-17T00:54:26.501Z,17.73
2022-12-17T00:57:10.765Z,15.13
2022-12-17T00:59:55.847Z,16.23
2022-12-17T01:02:40.706Z,15.40
2022-12-17T01:05:25.988Z,13.50
2022-12-17T01:08:10.304Z,14.10
2022-12-17T01:10:55.150Z,5.87
2022-12-17T01:13:40.908Z,13.63
2022-12-17T01:16:31.034Z,14.03
2022-12-17T01:19:16.788Z,11.50
2022-12-17T01:22:02.871Z,13.97
2022-12-17T01:24:47.621Z,14.07
2022-12-17T01:27:32.520Z,12.03
2022-12-17T01:30:17.184Z,11.23
2022-12-17T01:33:01.442Z,10.57
2022-12-17T01:35:46.365Z,11.67
2022-12-17T01:38:33.206Z,9.80
2022-12-17T01:41:17.643Z,10.13
2022-12-17T01:44:01.858Z,10.03
2022-12-17T01:46:49.893Z,10.50
2022-12-17T01:49:35.297Z,8.47
2022-12-17T01:52:20.383Z,9.10
2022-12-17T01:55:04.911Z,10.63
2022-12-17T01:57:49.649Z,11.57
2022-12-17T02:00:35.390Z,9.80
2022-12-17T02:03:20.406Z,10.37
2022-12-17T02:06:29.274Z,10.90
2022-12-17T02:09:30.493Z,10.90
2022-12-17T02:12:35.110Z,10.40
2022-12-17T02:15:49.300Z,9.73
2022-12-17T02:18:38.937Z,6.40
2022-12-17T02:21:24.253Z,10.80
2022-12-17T02:24:37.485Z,9.77
2022-12-17T02:27:25.784Z,11.20
2022-12-17T02:30:22.672Z,10.80
2022-12-17T02:33:07.564Z,12.00
2022-12-17T02:36:30.040Z,10.93
2022-12-17T02:39:14.564Z,11.10
2022-12-17T02:42:04.016Z,10.60
2022-12-17T02:44:50.002Z,10.30
2022-12-17T02:47:35.689Z,10.90
2022-12-17T02:50:20.016Z,10.57
2022-12-17T02:53:05.898Z,10.40
2022-12-17T02:55:51.717Z,9.90
2022-12-17T02:58:36.108Z,10.90
2022-12-17T03:01:20.692Z,10.30
2022-12-17T03:04:05.494Z,10.87
2022-12-17T03:06:49.866Z,10.13
2022-12-17T03:09:34.406Z,10.40
2022-12-17T03:12:19.359Z,9.43
2022-12-17T03:15:03.857Z,10.13
2022-12-17T03:17:48.700Z,10.03
2022-12-17T03:20:33.125Z,10.50
2022-12-17T03:23:25.608Z,9.23
2022-12-17T03:26:10.642Z,10.13
2022-12-17T03:28:55.409Z,9.77
2022-12-17T03:31:40.386Z,9.40
2022-12-17T03:34:24.999Z,10.27
2022-12-17T03:37:10.534Z,10.30
2022-12-17T03:39:54.833Z,9.90
2022-12-17T03:42:39.124Z,8.97
2022-12-17T03:45:24.284Z,9.33
2022-12-17T03:48:08.710Z,9.73
2022-12-17T03:50:53.046Z,9.50
2022-12-17T03:53:37.864Z,10.23
2022-12-17T03:56:23.000Z,9.77
2022-12-17T03:59:07.263Z,9.77
2022-12-17T04:01:51.694Z,10.20
2022-12-17T04:04:36.344Z,10.20
2022-12-17T04:07:20.878Z,10.03
2022-12-17T04:10:08.165Z,10.40
2022-12-17T04:12:52.536Z,10.17
2022-12-17T04:15:56.737Z,9.97
2022-12-17T04:18:41.207Z,9.80
2022-12-17T04:21:25.695Z,10.10
2022-12-17T04:24:10.579Z,9.93
2022-12-17T04:26:55.062Z,11.17
2022-12-17T04:29:41.507Z,8.30
2022-12-17T04:32:25.988Z,10.07
2022-12-17T04:35:10.352Z,10.27
2022-12-17T04:37:54.895Z,11.60
2022-12-17T04:40:39.844Z,11.70
2022-12-17T04:43:26.189Z,10.30
2022-12-17T04:46:10.656Z,9.43
2022-12-17T04:48:55.206Z,9.90
2022-12-17T04:51:40.074Z,9.53
2022-12-17T04:54:24.946Z,10.23
2022-12-17T04:57:09.338Z,11.20
2022-12-17T04:59:53.635Z,10.90
2022-12-17T05:02:42.537Z,10.90
2022-12-17T05:05:28.015Z,11.57
2022-12-17T05:08:13.927Z,11.07
2022-12-17T05:10:58.848Z,10.47
2022-12-17T05:13:43.792Z,11.13
2022-12-17T05:16:28.774Z,10.20
2022-12-17T05:19:13.592Z,10.60
2022-12-17T05:21:58.654Z,11.03
2022-12-17T05:24:42.971Z,10.27
2022-12-17T05:27:27.395Z,10.47
2022-12-17T05:30:11.684Z,10.10
2022-12-17T05:32:56.508Z,10.80
2022-12-17T05:35:41.347Z,10.03
2022-12-17T05:38:35.302Z,10.50
2022-12-17T05:41:19.806Z,9.60
2022-12-17T05:44:04.278Z,9.00
2022-12-17T05:46:48.969Z,9.07
2022-12-17T05:49:33.621Z,8.07
2022-12-17T05:52:18.437Z,7.63
2022-12-17T05:55:02.904Z,7.77
2022-12-17T05:57:51.735Z,8.10
2022-12-17T06:00:39.226Z,8.17
2022-12-17T06:03:23.643Z,9.30
2022-12-17T06:06:14.978Z,9.10
2022-12-17T06:08:59.982Z,9.20
2022-12-17T06:11:44.763Z,8.60
2022-12-17T06:14:29.073Z,9.13
2022-12-17T06:17:13.441Z,9.93
2022-12-17T06:19:57.907Z,9.10
2022-12-17T06:22:42.771Z,8.63
2022-12-17T06:25:27.212Z,9.10
2022-12-17T06:28:16.747Z,9.10
2022-12-17T06:31:01.093Z,9.43
2022-12-17T06:33:45.857Z,10.00
2022-12-17T06:36:30.199Z,10.70
2022-12-17T06:39:14.755Z,9.27
2022-12-17T06:42:04.324Z,9.57
2022-12-17T06:44:50.007Z,9.57
2022-12-17T06:47:34.901Z,9.90
2022-12-17T06:50:19.288Z,9.60
2022-12-17T06:53:03.709Z,9.10
2022-12-17T06:55:48.080Z,9.70
2022-12-17T06:58:32.521Z,9.17
2022-12-17T07:01:17.130Z,10.60
2022-12-17T07:04:01.777Z,10.07
2022-12-17T07:06:46.161Z,10.47
2022-12-17T07:09:30.381Z,10.00
2022-12-17T07:12:14.845Z,9.60
2022-12-17T07:14:59.580Z,10.20
2022-12-17T07:17:43.970Z,6.00
2022-12-17T07:20:28.788Z,9.60
2022-12-17T07:23:14.322Z,10.10
2022-12-17T07:25:59.622Z,10.60
2022-12-17T07:28:44.692Z,9.63
2022-12-17T07:31:29.212Z,11.30
2022-12-17T07:34:13.935Z,10.70
2022-12-17T07:37:02.879Z,10.23
2022-12-17T07:39:47.249Z,10.50
2022-12-17T07:42:31.804Z,10.13
2022-12-17T07:45:16.267Z,10.67
2022-12-17T07:48:00.707Z,9.83
2022-12-17T07:50:45.297Z,9.67
2022-12-17T07:53:30.190Z,10.10
2022-12-17T07:56:14.928Z,10.50
2022-12-17T07:58:59.399Z,11.10
2022-12-17T08:01:44.245Z,10.13
2022-12-17T08:04:28.876Z,9.17
2022-12-17T08:07:14.266Z,10.63
2022-12-17T08:09:58.982Z,9.60
2022-12-17T08:12:43.270Z,9.27
2022-12-17T08:15:28.098Z,10.70
2022-12-17T08:18:22.916Z,10.10
2022-12-17T08:21:10.856Z,10.80
2022-12-17T08:23:55.251Z,10.03
2022-12-17T08:26:44.324Z,9.73
2022-12-17T08:29:39.633Z,9.43
2022-12-17T08:32:24.101Z,9.50
2022-12-17T08:35:08.558Z,9.67
2022-12-17T08:37:54.423Z,9.43
2022-12-17T08:40:38.792Z,8.87
2022-12-17T08:43:23.731Z,8.93
2022-12-17T08:46:09.685Z,8.73
2022-12-17T08:48:54.978Z,8.67
2022-12-17T08:51:40.656Z,7.43
2022-12-17T08:54:25.051Z,9.70
2022-12-17T08:57:09.521Z,8.90
2022-12-17T08:59:53.951Z,8.87
2022-12-17T09:02:39.018Z,9.40
2022-12-17T09:05:24.219Z,9.27
2022-12-17T09:08:23.094Z,8.93
2022-12-17T09:11:07.969Z,8.80
2022-12-17T09:13:53.039Z,9.37
2022-12-17T09:16:38.076Z,8.30
2022-12-17T09:19:23.347Z,8.23
2022-12-17T09:22:07.712Z,8.30
2022-12-17T09:24:52.134Z,8.27
2022-12-17T09:27:36.525Z,8.53
2022-12-17T09:30:22.389Z,9.00
2022-12-17T09:33:06.907Z,9.53
2022-12-17T09:35:51.300Z,9.00
2022-12-17T09:38:36.505Z,8.33
2022-12-17T09:41:38.443Z,9.40
2022-12-17T09:44:32.642Z,14.10
2022-12-17T09:47:25.193Z,11.20
2022-12-17T09:50:10.479Z,11.63
2022-12-17T09:52:57.528Z,10.80
2022-12-17T09:55:46.351Z,9.30
2022-12-17T09:58:40.949Z,9.67
2022-12-17T10:01:36.461Z,9.17
2022-12-17T10:04:31.893Z,8.90
2022-12-17T10:07:16.601Z,9.00
2022-12-17T10:10:02.468Z,9.97
2022-12-17T10:12:47.114Z,12.67
2022-12-17T10:15:33.289Z,9.40
2022-12-17T10:18:29.690Z,10.00
2022-12-17T10:21:20.275Z,10.13
2022-12-17T10:24:04.931Z,10.37
2022-12-17T10:26:51.764Z,8.83
2022-12-17T10:29:47.772Z,9.60
2022-12-17T10:32:32.692Z,11.10
2022-12-17T10:35:18.092Z,11.77
2022-12-17T10:38:02.779Z,10.30
2022-12-17T10:40:50.318Z,10.27
2022-12-17T10:43:46.062Z,9.37
2022-12-17T10:46:40.516Z,10.27
2022-12-17T10:49:42.842Z,10.80
2022-12-17T10:52:33.516Z,11.50
2022-12-17T10:55:23.007Z,11.10
2022-12-17T10:58:09.024Z,10.73
2022-12-17T11:01:02.627Z,10.50
2022-12-17T11:04:07.293Z,11.67
2022-12-17T11:06:54.413Z,11.27
2022-12-17T11:10:08.951Z,11.00
2022-12-17T11:13:00.288Z,19.57
2022-12-17T11:15:52.019Z,24.77
2022-12-17T11:18:47.899Z,14.50
2022-12-17T11:21:42.645Z,11.57
2022-12-17T11:24:42.481Z,10.23
2022-12-17T11:27:30.149Z,10.70
2022-12-17T11:30:14.736Z,10.50
2022-12-17T11:33:06.017Z,13.00
2022-12-17T11:36:05.068Z,10.93
2022-12-17T11:38:57.604Z,10.60
2022-12-17T11:41:57.297Z,9.73
2022-12-17T11:45:11.934Z,10.63
2022-12-17T11:48:10.026Z,12.07
2022-12-17T11:51:08.368Z,10.20
2022-12-17T11:54:14.640Z,12.43
2022-12-17T11:57:38.429Z,10.83
2022-12-17T12:00:40.249Z,11.40
2022-12-17T12:03:58.635Z,10.43
2022-12-17T12:06:51.367Z,10.93
2022-12-17T12:09:46.258Z,10.70
2022-12-17T12:13:06.535Z,10.93
2022-12-17T12:16:00.715Z,11.30
2022-12-17T12:18:52.904Z,12.20
2022-12-17T12:21:53.725Z,10.73
2022-12-17T12:24:54.536Z,6.10
2022-12-17T12:27:48.360Z,11.80
2022-12-17T12:30:35.652Z,10.10
2022-12-17T12:33:29.359Z,9.60
2022-12-17T12:36:17.209Z,11.00
2022-12-17T12:39:02.459Z,11.67
2022-12-17T12:42:12.113Z,10.07
2022-12-17T12:45:20.129Z,11.03
2022-12-17T12:48:24.874Z,10.47
2022-12-17T12:51:21.708Z,9.90
2022-12-17T12:54:20.001Z,11.67
2022-12-17T12:57:05.000Z,10.97
2022-12-17T12:59:52.884Z,10.90
2022-12-17T13:02:49.915Z,10.60
2022-12-17T13:05:34.086Z,10.30
2022-12-17T13:08:04.849Z,11.10
2022-12-17T13:10:32.070Z,10.03
2022-12-17T13:13:25.072Z,12.03
2022-12-17T13:15:55.217Z,11.43
2022-12-17T13:18:31.624Z,10.97
2022-12-17T13:21:02.645Z,10.40
2022-12-17T13:23:30.268Z,9.77
2022-12-17T13:26:14.680Z,10.80
2022-12-17T13:28:41.250Z,10.70
2022-12-17T13:31:17.416Z,10.43
2022-12-17T13:34:25.311Z,10.43
2022-12-17T13:37:24.892Z,11.13
2022-12-17T13:40:03.561Z,11.50
2022-12-17T13:42:32.033Z,10.30
2022-12-17T13:44:58.383Z,9.40
2022-12-17T13:47:27.182Z,8.40
2022-12-17T13:50:31.654Z,10.00
2022-12-17T13:52:41.816Z,7.33
2022-12-17T13:55:13.243Z,11.60
2022-12-17T13:57:45.097Z,10.07
2022-12-17T14:00:25.531Z,10.90
2022-12-17T14:02:52.841Z,10.90
2022-12-17T14:05:37.951Z,10.93
2022-12-17T14:08:04.770Z,10.90
2022-12-17T14:10:30.961Z,11.17
2022-12-17T14:13:13.125Z,11.37
2022-12-17T14:15:47.997Z,10.77
2022-12-17T14:18:15.729Z,9.67
2022-12-17T14:20:41.875Z,11.07
2022-12-17T14:23:14.989Z,11.00
2022-12-17T14:25:42.844Z,10.50
2022-12-17T14:28:29.977Z,9.77
2022-12-17T14:31:31.609Z,10.23
2022-12-17T14:34:06.502Z,10.67
2022-12-17T14:36:39.877Z,11.17
2022-12-17T14:39:17.276Z,10.53
2022-12-17T14:42:01.982Z,10.23
2022-12-17T14:44:29.483Z,9.53
2022-12-17T14:47:21.587Z,9.67
2022-12-17T14:49:56.762Z,9.93
2022-12-17T14:52:31.806Z,10.53
2022-12-17T14:54:58.046Z,10.43
2022-12-17T14:57:24.088Z,10.40
2022-12-17T14:59:51.698Z,11.17
2022-12-17T15:02:26.051Z,10.30
2022-12-17T15:04:56.302Z,10.60
2022-12-17T15:07:24.793Z,10.83
2022-12-17T15:09:52.109Z,11.10
2022-12-17T15:12:19.668Z,10.80
2022-12-17T15:14:46.003Z,10.77
2022-12-17T15:17:12.473Z,10.20
2022-12-17T15:19:38.475Z,11.33
2022-12-17T15:22:04.745Z,11.10
2022-12-17T15:24:31.140Z,9.47
2022-12-17T15:26:57.203Z,11.20
2022-12-17T15:29:26.140Z,9.90
2022-12-17T15:31:52.209Z,10.80
2022-12-17T15:34:18.306Z,10.43
2022-12-17T15:36:44.365Z,10.47
2022-12-17T15:39:10.485Z,11.30
2022-12-17T15:41:55.184Z,10.90
2022-12-17T15:44:21.293Z,10.37
2022-12-17T15:46:47.402Z,11.27
2022-12-17T15:49:13.469Z,10.10
2022-12-17T15:51:39.499Z,9.87
2022-12-17T15:54:05.568Z,6.37
2022-12-17T15:56:31.710Z,10.30
2022-12-17T15:58:58.368Z,10.57
2022-12-17T16:01:24.626Z,11.03
2022-12-17T16:03:50.724Z,10.30
2022-12-17T16:06:16.841Z,11.07
2022-12-17T16:08:42.925Z,10.70
2022-12-17T16:11:10.555Z,10.97
2022-12-17T16:13:37.257Z,11.90
2022-12-17T16:16:04.607Z,10.53
2022-12-17T16:18:31.186Z,11.60
2022-12-17T16:21:05.920Z,11.30
2022-12-17T16:23:32.036Z,11.33
2022-12-17T16:25:59.368Z,12.53
2022-12-17T16:28:26.856Z,10.47
2022-12-17T16:31:06.058Z,11.13
2022-12-17T16:33:35.710Z,11.30
2022-12-17T16:36:03.330Z,11.05
2022-12-17T16:38:29.490Z,11.47
2022-12-17T16:41:00.627Z,12.40
2022-12-17T16:43:27.367Z,14.30
2022-12-17T16:45:54.006Z,12.33
2022-12-17T16:48:21.370Z,12.60
2022-12-17T16:50:48.153Z,11.83
2022-12-17T16:53:14.771Z,11.23
2022-12-17T16:55:48.163Z,11.30
2022-12-17T16:58:16.276Z,11.03
2022-12-17T17:00:42.320Z,11.93
2022-12-17T17:03:08.665Z,11.63
2022-12-17T17:05:37.629Z,11.13
2022-12-17T17:08:04.111Z,11.87
2022-12-17T17:10:30.630Z,12.00
2022-12-17T17:12:56.919Z,10.93
2022-12-17T17:15:23.293Z,11.87
2022-12-17T17:17:54.730Z,11.23
2022-12-17T17:20:22.660Z,12.00
2022-12-17T17:22:48.777Z,13.00
2022-12-17T17:25:14.911Z,13.70
2022-12-17T17:27:41.077Z,12.73
2022-12-17T17:30:07.715Z,13.50
2022-12-17T17:32:33.843Z,16.37
2022-12-17T17:34:59.942Z,16.73
2022-12-17T17:37:27.183Z,18.60
2022-12-17T17:39:53.264Z,18.00
2022-12-17T17:42:19.316Z,19.07
2022-12-17T17:44:45.371Z,20.90
2022-12-17T17:47:11.515Z,22.13
2022-12-17T17:49:37.689Z,22.87
2022-12-17T17:52:11.857Z,21.33
2022-12-17T17:54:41.799Z,19.67
2022-12-17T17:57:08.697Z,15.40
2022-12-17T17:59:34.828Z,16.77
2022-12-17T18:02:02.046Z,17.97
2022-12-17T18:04:28.312Z,16.93
2022-12-17T18:09:40.456Z,15.27
2022-12-17T18:12:25.200Z,16.33
2022-12-17T18:15:13.237Z,16.20
2022-12-17T18:17:38.533Z,14.43
2022-12-17T18:20:05.334Z,15.00
2022-12-17T18:22:31.417Z,16.53
2022-12-17T18:24:57.481Z,14.63
2022-12-17T18:27:23.573Z,16.27
2022-12-17T18:29:49.640Z,15.20
2022-12-17T18:32:15.743Z,14.60
2022-12-17T18:34:41.904Z,16.37
2022-12-17T18:37:08.063Z,17.07
2022-12-17T18:39:34.305Z,18.00
2022-12-17T18:42:18.812Z,16.50
2022-12-17T18:44:44.873Z,16.13
2022-12-17T18:47:11.141Z,16.37
2022-12-17T18:49:38.296Z,15.30
2022-12-17T18:52:04.541Z,16.60
2022-12-17T18:54:30.813Z,16.40
2022-12-17T18:57:01.719Z,14.90
2022-12-17T18:59:29.505Z,15.20
2022-12-17T19:01:55.985Z,14.83
2022-12-17T19:04:22.958Z,14.23
2022-12-17T19:06:50.724Z,14.20
2022-12-17T19:09:19.501Z,15.50
2022-12-17T19:11:45.701Z,13.97
2022-12-17T19:14:11.876Z,14.17
2022-12-17T19:16:39.207Z,13.53
2022-12-17T19:19:05.389Z,12.90
2022-12-17T19:21:33.084Z,13.40
2022-12-17T19:24:03.249Z,12.33
2022-12-17T19:26:29.524Z,11.67
2022-12-17T19:28:56.753Z,13.00
2022-12-17T19:31:24.672Z,13.50
2022-12-17T19:33:56.165Z,8.87
2022-12-17T19:36:28.056Z,12.53
2022-12-17T19:38:56.467Z,15.63
2022-12-17T19:41:22.921Z,14.47
2022-12-17T19:43:54.262Z,13.80
2022-12-17T19:46:20.508Z,14.03
2022-12-17T19:48:48.913Z,14.00
2022-12-17T19:51:18.507Z,13.60
2022-12-17T19:53:45.233Z,11.80
2022-12-17T19:56:28.553Z,12.40
2022-12-17T19:58:57.072Z,12.57
2022-12-17T20:01:25.483Z,12.90
2022-12-17T20:03:53.028Z,8.97
2022-12-17T20:06:22.167Z,13.50
2022-12-17T20:08:48.541Z,12.67
2022-12-17T20:11:33.500Z,12.80
2022-12-17T20:14:07.016Z,13.07
2022-12-17T20:16:38.560Z,13.83
2022-12-17T20:19:07.410Z,13.60
2022-12-17T20:21:33.592Z,13.73
2022-12-17T20:23:59.704Z,14.20
2022-12-17T20:26:26.146Z,13.30
2022-12-17T20:28:52.295Z,13.23
2022-12-17T20:31:18.433Z,13.37
2022-12-17T20:33:44.520Z,14.30
2022-12-17T20:36:13.152Z,14.40
2022-12-17T20:38:39.721Z,13.03
2022-12-17T20:41:10.366Z,12.50
2022-12-17T20:43:37.212Z,13.60
2022-12-17T20:46:03.459Z,13.43
2022-12-17T20:48:29.624Z,12.90
2022-12-17T20:50:55.704Z,12.60
2022-12-17T20:53:21.850Z,13.37
2022-12-17T20:55:47.922Z,12.47
2022-12-17T20:58:14.947Z,13.60
2022-12-17T21:00:41.022Z,13.80
2022-12-17T21:03:07.285Z,18.20
2022-12-17T21:05:34.963Z,13.27
2022-12-17T21:08:00.986Z,14.03
2022-12-17T21:10:27.028Z,16.07
2022-12-17T21:13:11.744Z,16.00
2022-12-17T21:15:37.813Z,21.80
2022-12-17T21:18:03.931Z,14.80
2022-12-17T21:20:29.960Z,17.00
2022-12-17T21:22:56.277Z,13.97
2022-12-17T21:25:22.344Z,12.60
2022-12-17T21:27:48.395Z,11.40
2022-12-17T21:30:17.637Z,12.20
2022-12-17T21:32:43.674Z,12.50
2022-12-17T21:35:10.698Z,12.90
2022-12-17T21:37:36.816Z,13.57
2022-12-17T21:40:03.179Z,13.20
2022-12-17T21:42:47.903Z,13.57
2022-12-17T21:45:14.818Z,11.83
2022-12-17T21:47:41.016Z,12.80
2022-12-17T21:50:07.308Z,12.77
2022-12-17T21:52:33.351Z,12.30
2022-12-17T21:54:59.408Z,11.93
2022-12-17T21:57:25.492Z,12.87
2022-12-17T21:59:51.610Z,15.40
2022-12-17T22:02:19.038Z,12.90
2022-12-17T22:04:45.418Z,13.33
2022-12-17T22:07:11.586Z,12.20
2022-12-17T22:10:06.267Z,12.77
2022-12-17T22:12:56.407Z,12.23
2022-12-17T22:15:22.942Z,13.87
2022-12-17T22:17:54.380Z,13.13
2022-12-17T22:20:22.112Z,12.47
2022-12-17T22:22:48.388Z,10.87
2022-12-17T22:25:14.921Z,11.70
2022-12-17T22:27:41.587Z,11.80
2022-12-17T22:30:31.090Z,11.53
2022-12-17T22:33:00.136Z,9.70
2022-12-17T22:36:26.754Z,11.73
2022-12-17T22:41:08.593Z,11.93
2022-12-17T22:44:35.976Z,10.90
2022-12-17T22:44:49.262Z,10.33
2022-12-17T22:46:39.113Z,11.30
2022-12-17T22:49:05.198Z,10.70
2022-12-17T22:51:39.169Z,12.00
2022-12-17T22:54:06.688Z,11.63
2022-12-17T22:57:20.473Z,11.30
2022-12-17T22:59:20.968Z,11.93
2022-12-17T23:01:47.095Z,11.30
2022-12-17T23:04:14.921Z,11.77
2022-12-17T23:06:44.534Z,10.67
2022-12-17T23:09:14.573Z,12.30
2022-12-17T23:11:40.655Z,11.30
2022-12-17T23:14:07.547Z,10.83
2022-12-17T23:16:33.926Z,11.47
2022-12-17T23:19:00.823Z,11.87
2022-12-17T23:21:27.207Z,11.13
2022-12-17T23:23:54.657Z,11.40
2022-12-17T23:26:26.506Z,10.50
2022-12-17T23:28:57.732Z,11.10
2022-12-17T23:31:25.755Z,10.80
2022-12-17T23:33:51.893Z,11.83
2022-12-17T23:36:21.455Z,10.97
2022-12-17T23:38:48.607Z,11.37
2022-12-17T23:41:20.539Z,10.50
2022-12-17T23:43:47.023Z,10.23
2022-12-17T23:46:13.276Z,10.30
2022-12-17T23:48:45.403Z,11.30
2022-12-17T23:51:14.683Z,10.40
2022-12-17T23:53:42.007Z,11.97
2022-12-17T23:56:14.385Z,10.40
2022-12-17T23:58:41.960Z,10.63
